Time;durP1;ratioP1;P1;durP2;ratioP2;P2;SDS_P1;SDS_P2;PMS_P1;PMS_P2;Temp;Humidity;BMP_temperature;BMP_pressure;BME280_temperature;BME280_humidity;BME280_pressure;Samples;Min_cycle;Max_cycle;Signal;HPM_P1;HPM_P2
2022/05/12 00:01:09;;;;;;;10.45;3.87;;;14.80;99.90;;;;;;7357498;32;20138;-61
2022/05/12 00:05:13;;;;;;;8.20;4.12;;;14.80;99.90;;;;;;7362771;32;20655;-61
2022/05/12 00:09:15;;;;;;;7.57;3.42;;;14.80;99.90;;;;;;7337417;32;20202;-60
2022/05/12 00:13:16;;;;;;;8.02;3.70;;;14.90;99.90;;;;;;7346982;32;20111;-60
2022/05/12 00:17:18;;;;;;;9.32;4.10;;;14.80;99.90;;;;;;7355369;32;20275;-60
2022/05/12 00:21:20;;;;;;;10.07;5.03;;;14.80;99.90;;;;;;7344133;32;20106;-60
2022/05/12 00:25:23;;;;;;;9.85;4.50;;;14.80;99.90;;;;;;7361497;32;20208;-60
2022/05/12 00:29:25;;;;;;;8.15;4.75;;;14.70;99.90;;;;;;7339927;32;20252;-60
2022/05/12 00:33:27;;;;;;;13.98;4.40;;;14.70;99.90;;;;;;7342808;32;20222;-59
2022/05/12 00:37:29;;;;;;;12.20;4.80;;;14.70;99.90;;;;;;7353599;32;20178;-59
2022/05/12 00:41:31;;;;;;;8.95;4.90;;;14.70;99.90;;;;;;7344717;32;20106;-59
2022/05/12 00:45:35;;;;;;;8.63;4.62;;;14.60;99.90;;;;;;7356979;32;20522;-60
2022/05/12 00:49:40;;;;;;;8.80;4.47;;;14.60;99.90;;;;;;7352744;32;20149;-59
2022/05/12 00:53:42;;;;;;;11.98;5.18;;;14.60;99.90;;;;;;7358069;32;20273;-60
2022/05/12 00:57:49;;;;;;;12.10;5.15;;;14.50;99.90;;;;;;7357705;32;20111;-60
2022/05/12 01:01:52;;;;;;;11.38;4.95;;;14.40;99.90;;;;;;7352075;32;20525;-59
2022/05/12 01:05:54;;;;;;;13.25;4.62;;;14.20;99.90;;;;;;7357084;32;20133;-59
2022/05/12 01:09:57;;;;;;;10.10;4.53;;;14.20;99.90;;;;;;7357461;32;20137;-59
2022/05/12 01:14:05;;;;;;;8.20;4.32;;;14.00;99.90;;;;;;7357726;32;20605;-60
2022/05/12 01:18:10;;;;;;;11.93;4.07;;;13.90;99.90;;;;;;7338471;32;20491;-60
2022/05/12 01:22:40;;;;;;;7.80;3.95;;;13.70;99.90;;;;;;7357330;32;20107;-59
2022/05/12 01:26:43;;;;;;;9.05;3.97;;;13.60;99.90;;;;;;7344723;32;20193;-59
2022/05/12 01:30:44;;;;;;;9.50;4.28;;;13.50;99.90;;;;;;7351983;32;20198;-60
2022/05/12 01:34:47;;;;;;;11.88;5.18;;;13.40;99.90;;;;;;7358160;32;20219;-60
2022/05/12 01:38:49;;;;;;;8.27;4.97;;;13.20;99.90;;;;;;7354779;32;20577;-58
2022/05/12 01:42:55;;;;;;;7.75;5.00;;;13.10;99.90;;;;;;7358348;32;20103;-60
2022/05/12 01:46:58;;;;;;;10.18;5.57;;;13.00;99.90;;;;;;7347286;32;20140;-59
2022/05/12 01:51:00;;;;;;;10.55;6.00;;;12.90;99.90;;;;;;7354728;32;20134;-59
2022/05/12 01:55:02;;;;;;;8.60;5.65;;;12.60;99.90;;;;;;7362219;32;20098;-59
2022/05/12 01:59:04;;;;;;;10.32;6.10;;;12.70;99.90;;;;;;7360629;32;20777;-59
2022/05/12 02:03:05;;;;;;;10.40;5.85;;;12.60;99.90;;;;;;7357239;32;20170;-60
2022/05/12 02:07:08;;;;;;;12.80;6.80;;;12.40;99.90;;;;;;7339247;32;20245;-59
2022/05/12 02:11:10;;;;;;;10.55;5.43;;;12.30;99.90;;;;;;7351015;32;20204;-60
2022/05/12 02:15:12;;;;;;;10.25;6.22;;;12.20;99.90;;;;;;7354496;32;20219;-60
2022/05/12 02:19:14;;;;;;;14.18;7.22;;;12.10;99.90;;;;;;7333294;32;20838;-60
2022/05/12 02:23:16;;;;;;;12.75;6.60;;;11.90;99.90;;;;;;7347562;32;20107;-59
2022/05/12 02:27:20;;;;;;;8.18;6.40;;;11.80;99.90;;;;;;7341619;32;20707;-63
2022/05/12 02:31:22;;;;;;;12.35;6.95;;;11.80;99.90;;;;;;7359207;32;20099;-60
2022/05/12 02:35:25;;;;;;;13.30;7.28;;;11.70;99.90;;;;;;7364738;32;20103;-59
2022/05/12 02:39:29;;;;;;;11.48;7.32;;;11.60;99.90;;;;;;7356299;32;20125;-59
2022/05/12 02:43:31;;;;;;;11.63;6.65;;;11.50;99.90;;;;;;7360467;32;20741;-59
2022/05/12 02:47:33;;;;;;;12.27;6.87;;;11.50;99.90;;;;;;7344671;32;20260;-59
2022/05/12 02:51:35;;;;;;;10.27;6.68;;;11.40;99.90;;;;;;7354890;32;20157;-60
2022/05/12 02:55:38;;;;;;;14.18;6.37;;;11.40;99.90;;;;;;7354691;32;20235;-58
2022/05/12 02:59:39;;;;;;;10.63;6.37;;;11.30;99.90;;;;;;7355050;32;20126;-60
2022/05/12 03:03:41;;;;;;;10.30;6.47;;;11.20;99.90;;;;;;7349473;32;20221;-60
2022/05/12 03:07:43;;;;;;;11.65;6.50;;;11.10;99.90;;;;;;7358335;32;20220;-60
2022/05/12 03:11:45;;;;;;;10.80;6.30;;;11.00;99.90;;;;;;7353483;32;20541;-59
2022/05/12 03:15:47;;;;;;;13.10;7.68;;;10.90;99.90;;;;;;7353081;32;20458;-61
2022/05/12 03:19:48;;;;;;;13.02;6.80;;;10.80;99.90;;;;;;7361174;32;20104;-59
2022/05/12 03:23:50;;;;;;;10.02;7.45;;;10.70;99.90;;;;;;7355725;32;20193;-59
2022/05/12 03:27:52;;;;;;;9.60;7.68;;;10.60;99.90;;;;;;7342581;32;20110;-60
2022/05/12 03:31:53;;;;;;;11.02;7.62;;;10.60;99.90;;;;;;7355667;32;20107;-60
2022/05/12 03:35:57;;;;;;;11.93;7.43;;;10.50;99.90;;;;;;7343529;32;20610;-60
2022/05/12 03:39:59;;;;;;;10.35;7.95;;;10.50;99.90;;;;;;7359873;32;20130;-60
2022/05/12 03:48:22;;;;;;;12.77;7.57;;;10.10;99.90;;;;;;7351804;32;20129;-60
2022/05/12 03:52:24;;;;;;;14.85;7.80;;;10.10;99.90;;;;;;7357944;32;20129;-60
2022/05/12 03:56:26;;;;;;;10.07;7.40;;;10.20;99.90;;;;;;7359936;32;20111;-59
2022/05/12 04:00:34;;;;;;;13.70;8.35;;;10.10;99.90;;;;;;7358292;32;20505;-59
2022/05/12 04:04:36;;;;;;;9.85;7.57;;;10.10;99.90;;;;;;7296751;32;20742;-59
2022/05/12 04:08:38;;;;;;;11.75;7.70;;;10.10;99.90;;;;;;7228925;32;20124;-58
2022/05/12 04:12:40;;;;;;;11.55;7.68;;;10.00;99.90;;;;;;7237779;32;20154;-59
2022/05/12 04:16:41;;;;;;;9.75;7.93;;;10.00;99.90;;;;;;7266420;32;20182;-59
2022/05/12 04:20:44;;;;;;;11.82;8.00;;;10.00;99.90;;;;;;7289777;32;20207;-59
2022/05/12 04:24:46;;;;;;;8.98;7.65;;;10.00;99.90;;;;;;7234675;32;20108;-59
2022/05/12 04:28:48;;;;;;;10.13;7.85;;;10.00;99.90;;;;;;7228801;32;20131;-60
2022/05/12 04:32:50;;;;;;;10.57;7.78;;;10.00;99.90;;;;;;7235854;32;20100;-60
2022/05/12 04:36:52;;;;;;;8.10;6.97;;;10.10;99.90;;;;;;7268617;32;20218;-60
2022/05/12 04:40:54;;;;;;;9.23;7.25;;;10.40;99.90;;;;;;7232668;32;20229;-60
2022/05/12 04:44:55;;;;;;;8.43;6.60;;;10.70;99.90;;;;;;7235042;32;20115;-60
2022/05/12 04:48:57;;;;;;;9.02;5.87;;;10.90;99.90;;;;;;7269612;32;20104;-63
2022/05/12 04:53:00;;;;;;;7.72;5.75;;;11.10;99.90;;;;;;7231871;32;20131;-64
2022/05/12 04:57:01;;;;;;;8.40;5.87;;;11.40;99.90;;;;;;7232849;32;20112;-64
2022/05/12 05:01:04;;;;;;;12.27;5.62;;;11.60;99.90;;;;;;7247329;32;20118;-63
2022/05/12 05:05:06;;;;;;;8.13;6.22;;;11.90;99.90;;;;;;7357901;32;20145;-65
2022/05/12 05:09:09;;;;;;;7.95;5.30;;;12.20;99.90;;;;;;7343781;32;20476;-64
2022/05/12 05:13:13;;;;;;;5.95;4.95;;;12.60;99.90;;;;;;7340331;32;20099;-64
2022/05/12 05:17:14;;;;;;;13.02;9.20;;;12.70;99.90;;;;;;7369340;32;20131;-64
2022/05/12 05:21:17;;;;;;;10.27;5.28;;;12.30;99.90;;;;;;7355790;32;20206;-64
2022/05/12 05:25:18;;;;;;;10.60;5.93;;;12.00;99.90;;;;;;7345550;32;20152;-64
2022/05/12 05:29:20;;;;;;;7.95;5.68;;;12.00;99.90;;;;;;7356755;32;20195;-63
2022/05/12 05:33:22;;;;;;;9.85;5.18;;;11.90;99.90;;;;;;7336131;32;20233;-64
2022/05/12 05:37:23;;;;;;;9.43;5.62;;;11.90;99.90;;;;;;7357395;32;20675;-63
2022/05/12 05:41:25;;;;;;;8.75;7.30;;;12.00;99.90;;;;;;7360170;32;20144;-62
2022/05/12 05:45:27;;;;;;;11.25;5.10;;;12.00;99.90;;;;;;7358599;32;20103;-63
2022/05/12 05:49:30;;;;;;;13.15;5.85;;;12.10;99.90;;;;;;7351721;32;20171;-65
2022/05/12 05:53:35;;;;;;;8.45;4.72;;;12.20;99.90;;;;;;7353177;32;20217;-63
2022/05/12 05:57:38;;;;;;;11.23;5.55;;;12.10;99.90;;;;;;7354898;32;20115;-62
2022/05/12 06:01:40;;;;;;;8.57;5.20;;;12.30;99.90;;;;;;7366911;32;20487;-64
2022/05/12 06:05:42;;;;;;;13.40;4.60;;;12.30;99.90;;;;;;7365264;32;20126;-64
2022/05/12 06:09:44;;;;;;;12.15;4.07;;;12.40;99.90;;;;;;7359063;32;20233;-64
2022/05/12 06:13:48;;;;;;;10.13;3.75;;;12.40;99.90;;;;;;7357738;32;20103;-64
2022/05/12 06:17:50;;;;;;;9.52;3.60;;;12.50;99.90;;;;;;7352486;32;20107;-63
2022/05/12 06:21:54;;;;;;;9.60;3.50;;;12.60;99.90;;;;;;7339037;32;20261;-62
2022/05/12 06:25:55;;;;;;;10.25;3.53;;;12.70;99.90;;;;;;7356671;32;20106;-63
2022/05/12 06:29:57;;;;;;;8.25;3.37;;;13.30;99.90;;;;;;7338932;32;20185;-63
2022/05/12 06:33:59;;;;;;;7.12;2.60;;;13.90;99.90;;;;;;7365431;32;20481;-64
2022/05/12 06:38:00;;;;;;;8.05;2.97;;;14.90;99.90;;;;;;7354893;32;20894;-65
2022/05/12 06:42:03;;;;;;;6.28;2.67;;;15.80;99.90;;;;;;7355963;32;20761;-64
2022/05/12 06:46:05;;;;;;;9.25;3.15;;;16.10;99.90;;;;;;7346743;32;20224;-63
2022/05/12 06:50:07;;;;;;;9.98;3.83;;;16.00;99.90;;;;;;7364694;32;20107;-62
2022/05/12 06:54:09;;;;;;;8.45;3.30;;;15.70;99.90;;;;;;7356457;32;20219;-63
2022/05/12 06:58:11;;;;;;;13.20;4.00;;;15.50;99.90;;;;;;7359379;32;20585;-63
2022/05/12 07:02:13;;;;;;;11.73;4.43;;;15.10;99.90;;;;;;7356014;32;20111;-64
2022/05/12 07:06:16;;;;;;;10.48;3.65;;;14.90;99.90;;;;;;7347536;32;20668;-63
2022/05/12 07:10:20;;;;;;;11.02;4.45;;;14.70;99.90;;;;;;7350866;32;20201;-64
2022/05/12 07:14:22;;;;;;;14.00;4.75;;;14.80;99.90;;;;;;7352375;32;20107;-64
2022/05/12 07:18:23;;;;;;;13.93;5.07;;;14.80;99.90;;;;;;7363884;32;20114;-63
2022/05/12 07:26:52;;;;;;;9.63;4.22;;;15.40;99.90;;;;;;7346875;32;20444;-63
2022/05/12 07:31:03;;;;;;;9.63;4.35;;;15.50;99.90;;;;;;7361877;32;20125;-62
2022/05/12 07:35:09;;;;;;;13.25;4.25;;;15.30;99.90;;;;;;7361532;32;20163;-63
2022/05/12 07:39:12;;;;;;;8.45;3.58;;;15.20;99.90;;;;;;7364063;32;20111;-63
2022/05/12 07:43:14;;;;;;;8.63;3.65;;;15.30;99.90;;;;;;7362725;32;20111;-63
2022/05/12 07:47:16;;;;;;;8.88;4.28;;;15.50;99.90;;;;;;7357968;32;20311;-62
2022/05/12 07:51:19;;;;;;;8.18;4.15;;;15.60;99.90;;;;;;7364380;32;20099;-63
2022/05/12 07:55:23;;;;;;;7.60;3.53;;;15.60;99.90;;;;;;7344410;32;20108;-62
2022/05/12 07:59:27;;;;;;;7.93;3.47;;;15.60;99.90;;;;;;7363355;32;20198;-63
2022/05/12 08:03:29;;;;;;;9.00;4.03;;;15.40;99.90;;;;;;7366963;32;20133;-63
2022/05/12 08:07:31;;;;;;;9.73;4.78;;;15.20;99.90;;;;;;7341458;32;20137;-62
2022/05/12 08:11:33;;;;;;;9.20;5.30;;;15.30;99.90;;;;;;7363285;32;20133;-62
2022/05/12 08:15:35;;;;;;;10.50;5.68;;;15.40;99.90;;;;;;7347909;32;20228;-63
2022/05/12 08:19:37;;;;;;;12.73;5.25;;;15.40;99.90;;;;;;7338015;32;20107;-64
2022/05/12 08:23:41;;;;;;;11.00;5.10;;;15.50;99.90;;;;;;7359415;32;20492;-64
2022/05/12 08:27:43;;;;;;;10.10;5.35;;;15.90;99.90;;;;;;7340799;32;20107;-63
2022/05/12 08:31:44;;;;;;;8.57;5.50;;;16.40;99.90;;;;;;7357733;32;20111;-62
2022/05/12 08:35:48;;;;;;;9.13;5.70;;;17.00;99.90;;;;;;7362267;32;20111;-63
2022/05/12 08:39:50;;;;;;;13.32;6.05;;;18.30;99.90;;;;;;7359980;32;20121;-64
2022/05/12 08:43:59;;;;;;;6.62;4.78;;;18.50;99.90;;;;;;7370442;32;20261;-63
2022/05/12 08:48:01;;;;;;;6.32;4.10;;;18.40;99.90;;;;;;7357243;32;20107;-63
2022/05/12 08:52:16;;;;;;;9.52;4.20;;;18.60;99.90;;;;;;7359683;32;20106;-63
2022/05/12 08:56:21;;;;;;;7.05;3.97;;;18.90;99.90;;;;;;7352958;32;20098;-62
2022/05/12 09:00:24;;;;;;;7.32;4.15;;;18.40;99.90;;;;;;7360158;32;20107;-65
2022/05/12 09:04:31;;;;;;;7.95;4.35;;;18.60;99.90;;;;;;7241762;32;20846;-65
2022/05/12 09:09:01;;;;;;;7.72;4.15;;;19.10;99.90;;;;;;7242164;32;20249;-65
2022/05/12 09:13:14;;;;;;;7.57;4.15;;;20.50;99.90;;;;;;7242493;32;20109;-62
2022/05/12 09:17:24;;;;;;;5.90;3.58;;;20.40;99.90;;;;;;7288776;32;20225;-62
2022/05/12 09:21:29;;;;;;;7.15;3.40;;;19.50;99.90;;;;;;7239792;32;20833;-61
2022/05/12 09:25:42;;;;;;;6.68;3.80;;;19.40;99.90;;;;;;7234252;32;20113;-62
2022/05/12 09:29:49;;;;;;;8.73;4.25;;;19.30;99.90;;;;;;7237644;32;20774;-64
2022/05/12 09:33:52;;;;;;;7.10;3.85;;;19.50;99.90;;;;;;7238431;32;20120;-61
2022/05/12 09:37:54;;;;;;;8.60;4.00;;;20.00;99.90;;;;;;7239347;32;20219;-62
2022/05/12 09:41:56;;;;;;;7.05;3.28;;;21.00;99.90;;;;;;7237161;32;20542;-63
2022/05/12 09:46:15;;;;;;;5.47;3.33;;;21.80;99.90;;;;;;7232541;32;20108;-62
2022/05/12 09:50:26;;;;;;;6.70;3.90;;;21.90;99.90;;;;;;7234269;32;20197;-63
2022/05/12 09:54:29;;;;;;;6.05;2.97;;;22.30;99.90;;;;;;7276977;32;20112;-59
2022/05/12 09:58:49;;;;;;;6.85;2.37;;;23.10;98.30;;;;;;7241975;32;20596;-59
2022/05/12 10:08:03;;;;;;;3.53;2.15;;;22.10;99.70;;;;;;7349769;32;20310;-63
2022/05/12 10:12:26;;;;;;;4.07;2.37;;;21.90;98.10;;;;;;7335408;32;20115;-63
2022/05/12 10:16:30;;;;;;;5.68;2.15;;;21.70;97.00;;;;;;7340499;32;20173;-63
2022/05/12 10:20:38;;;;;;;5.68;2.05;;;20.70;95.90;;;;;;7351479;32;20948;-63
2022/05/12 10:24:50;;;;;;;6.62;2.92;;;20.50;96.90;;;;;;7340719;32;20201;-63
2022/05/12 10:28:54;;;;;;;4.03;1.52;;;20.80;97.90;;;;;;7361361;32;20134;-62
2022/05/12 10:33:13;;;;;;;3.30;1.67;;;20.70;93.10;;;;;;7343147;32;20325;-63
2022/05/12 10:37:33;;;;;;;3.45;1.35;;;20.50;92.40;;;;;;7356141;32;20099;-63
2022/05/12 10:41:59;;;;;;;4.53;1.77;;;20.50;94.20;;;;;;7363639;32;20202;-61
2022/05/12 10:46:24;;;;;;;3.50;1.90;;;20.20;99.50;;;;;;7351317;32;20111;-61
2022/05/12 10:50:40;;;;;;;5.00;2.08;;;19.40;99.10;;;;;;7338311;32;20134;-62
2022/05/12 10:55:19;;;;;;;3.10;1.40;;;19.40;99.90;;;;;;7356581;32;20218;-62
2022/05/12 10:59:48;;;;;;;4.32;1.60;;;19.40;98.20;;;;;;7352066;32;20107;-63
2022/05/12 11:04:08;;;;;;;1.95;0.75;;;19.60;99.90;;;;;;7250840;32;20108;-63
2022/05/12 11:08:22;;;;;;;2.28;1.00;;;20.00;93.60;;;;;;7231038;32;20109;-62
2022/05/12 11:12:33;;;;;;;4.75;1.67;;;19.90;93.90;;;;;;7227292;32;20117;-62
2022/05/12 11:16:59;;;;;;;5.60;1.60;;;19.50;93.30;;;;;;7239994;32;20108;-62
2022/05/12 11:21:12;;;;;;;5.32;2.00;;;19.50;98.50;;;;;;7233998;32;20112;-62
2022/05/12 11:25:30;;;;;;;5.70;1.73;;;19.70;99.90;;;;;;7234162;32;20108;-62
2022/05/12 11:29:44;;;;;;;;;;;20.10;99.80;;;;;;7282553;32;20139;-62
2022/05/12 11:33:51;;;;;;;6.57;1.92;;;20.40;97.20;;;;;;7235018;32;20234;-63
2022/05/12 11:38:01;;;;;;;;;;;20.70;98.70;;;;;;7279585;32;20646;-62
2022/05/12 11:42:05;;;;;;;4.22;2.08;;;20.50;96.10;;;;;;7237244;32;20448;-62
2022/05/12 11:46:30;;;;;;;5.37;2.37;;;20.00;98.40;;;;;;7233923;32;20128;-63
2022/05/12 11:50:55;;;;;;;5.47;2.20;;;20.00;99.50;;;;;;7232940;32;20898;-63
2022/05/12 11:55:06;;;;;;;5.97;1.80;;;19.90;98.90;;;;;;7233512;32;20485;-62
2022/05/12 11:59:24;;;;;;;6.93;1.80;;;20.00;99.90;;;;;;7238767;32;20133;-62
2022/05/12 12:03:26;;;;;;;4.85;1.75;;;19.60;96.70;;;;;;7324392;32;20118;-62
2022/05/12 12:07:31;;;;;;;4.18;1.70;;;19.10;96.80;;;;;;7365018;32;20157;-62
2022/05/12 12:11:43;;;;;;;5.62;1.67;;;18.80;98.50;;;;;;7359106;32;20526;-61
2022/05/12 12:16:04;;;;;;;6.65;2.22;;;18.80;99.90;;;;;;7337232;32;20107;-62
2022/05/12 12:20:29;;;;;;;6.35;2.10;;;19.20;98.70;;;;;;7368738;32;20243;-62
2022/05/12 12:24:49;;;;;;;4.40;1.70;;;19.70;97.60;;;;;;7362053;32;20206;-63
2022/05/12 12:29:09;;;;;;;7.12;1.77;;;19.70;97.50;;;;;;7358744;32;20130;-63
2022/05/12 12:33:19;;;;;;;4.32;1.80;;;19.70;99.40;;;;;;7345468;32;20210;-62
2022/05/12 12:37:42;;;;;;;5.22;1.75;;;20.00;95.60;;;;;;7365588;32;20106;-62
2022/05/12 12:41:45;;;;;;;6.25;1.83;;;20.20;95.80;;;;;;7358054;32;20125;-62
2022/05/12 12:45:52;;;;;;;8.10;1.87;;;20.30;94.90;;;;;;7342496;32;20213;-62
2022/05/12 12:50:26;;;;;;;4.03;1.58;;;19.80;93.90;;;;;;7363805;32;20126;-62
2022/05/12 12:58:55;;;;;;;4.47;1.30;;;20.20;95.00;;;;;;7359550;32;20111;-59
2022/05/12 13:03:01;;;;;;;3.30;1.58;;;20.20;92.10;;;;;;7289035;32;20237;-62
2022/05/12 13:07:10;;;;;;;4.60;1.12;;;20.10;90.40;;;;;;7237115;32;20724;-62
2022/05/12 13:11:19;;;;;;;4.03;1.08;;;19.90;93.60;;;;;;7238769;32;20112;-62
2022/05/12 13:15:23;;;;;;;3.78;1.12;;;19.90;92.70;;;;;;7287411;32;20101;-62
2022/05/12 13:19:39;;;;;;;2.92;1.05;;;19.80;91.40;;;;;;7238358;32;20720;-57
2022/05/12 13:23:41;;;;;;;3.75;1.00;;;19.80;91.00;;;;;;7284880;32;20108;-56
2022/05/12 13:27:43;;;;;;;3.30;1.10;;;19.90;90.10;;;;;;7285449;32;20120;-62
2022/05/12 13:31:54;;;;;;;4.75;1.15;;;20.10;90.90;;;;;;7233709;32;20108;-64
2022/05/12 13:36:05;;;;;;;4.70;1.42;;;20.30;86.60;;;;;;7241178;32;20101;-64
2022/05/12 13:40:07;;;;;;;3.75;1.00;;;20.20;87.20;;;;;;7243484;32;20634;-63
2022/05/12 13:44:24;;;;;;;3.45;1.20;;;20.40;88.60;;;;;;7239809;32;20100;-64
2022/05/12 13:48:27;;;;;;;4.12;1.40;;;20.50;87.60;;;;;;7292657;32;20108;-63
2022/05/12 13:52:40;;;;;;;6.43;1.37;;;20.40;85.70;;;;;;7227571;32;20203;-63
2022/05/12 13:56:42;;;;;;;5.78;1.30;;;20.10;81.50;;;;;;7231620;32;20134;-63
2022/05/12 14:00:51;;;;;;;3.45;1.20;;;19.70;87.60;;;;;;7239055;32;20104;-63
2022/05/12 14:05:00;;;;;;;3.83;1.60;;;19.70;89.80;;;;;;7353210;32;20386;-63
2022/05/12 14:09:05;;;;;;;5.47;1.52;;;19.80;80.60;;;;;;7360726;32;20121;-62
2022/05/12 14:22:07;;;;;;;4.15;1.05;;;19.80;82.10;;;;;;7358267;32;20103;-63
2022/05/12 14:26:09;;;;;;;4.05;1.15;;;19.90;83.50;;;;;;7365488;32;20120;-63
2022/05/12 14:30:12;;;;;;;3.87;1.23;;;19.90;84.00;;;;;;7367340;32;20103;-63
2022/05/12 14:34:18;;;;;;;7.87;1.80;;;19.90;81.40;;;;;;7366458;32;20447;-64
2022/05/12 14:38:21;;;;;;;5.45;1.80;;;19.70;80.10;;;;;;7348749;32;20137;-64
2022/05/12 14:42:23;;;;;;;3.87;1.35;;;19.70;86.50;;;;;;7360556;32;20170;-64
2022/05/12 14:46:31;;;;;;;3.45;1.15;;;19.60;89.40;;;;;;7365350;32;20686;-65
2022/05/12 14:50:32;;;;;;;;;;;19.70;87.50;;;;;;7362325;32;20216;-64
2022/05/12 14:54:34;;;;;;;3.17;1.17;;;19.70;85.20;;;;;;7347660;32;20326;-65
2022/05/12 14:58:37;;;;;;;7.60;1.62;;;19.70;84.10;;;;;;7339099;32;20769;-62
2022/05/12 15:02:42;;;;;;;3.75;1.35;;;19.80;84.10;;;;;;7353035;32;20114;-64
2022/05/12 15:06:45;;;;;;;4.85;1.45;;;19.90;82.90;;;;;;7352817;32;20208;-65
2022/05/12 15:10:47;;;;;;;3.65;1.33;;;19.90;83.30;;;;;;7358753;32;20216;-63
2022/05/12 15:14:48;;;;;;;3.67;1.37;;;20.00;84.80;;;;;;7360697;32;20224;-62
2022/05/12 15:18:57;;;;;;;4.55;1.50;;;20.10;83.00;;;;;;7360012;32;20091;-65
2022/05/12 15:23:01;;;;;;;4.43;1.60;;;19.90;83.70;;;;;;7368465;32;20132;-63
2022/05/12 15:27:06;;;;;;;3.62;1.75;;;19.80;83.20;;;;;;7362756;32;20359;-64
2022/05/12 15:31:08;;;;;;;6.07;1.90;;;19.80;86.40;;;;;;7345738;32;20128;-65
2022/05/12 15:35:11;;;;;;;3.83;1.70;;;19.60;85.80;;;;;;7367800;32;20460;-64
2022/05/12 15:39:15;;;;;;;5.68;1.70;;;19.50;89.10;;;;;;7337197;32;20115;-64
2022/05/12 15:43:17;;;;;;;6.72;1.90;;;19.50;82.70;;;;;;7365286;32;20294;-64
2022/05/12 15:47:31;;;;;;;7.62;2.92;;;19.60;86.30;;;;;;7359977;32;20560;-64
2022/05/12 15:51:33;;;;;;;3.50;1.27;;;19.50;85.90;;;;;;7360121;32;20167;-59
2022/05/12 15:55:35;;;;;;;6.40;1.92;;;19.60;82.50;;;;;;7367204;32;20107;-58
2022/05/12 15:59:37;;;;;;;5.97;1.83;;;19.70;82.30;;;;;;7363640;32;20208;-57
2022/05/12 16:03:39;;;;;;;7.12;2.00;;;19.70;82.60;;;;;;7367610;32;20132;-57
2022/05/12 16:07:41;;;;;;;4.30;1.87;;;19.60;81.70;;;;;;7348024;32;20115;-59
2022/05/12 16:15:53;;;;;;;5.30;1.60;;;19.40;86.90;;;;;;7359475;32;20137;-64
2022/05/12 16:19:55;;;;;;;18.67;2.50;;;19.40;87.50;;;;;;7355025;32;20314;-63
2022/05/12 16:23:57;;;;;;;7.53;2.35;;;19.30;81.00;;;;;;7360670;32;20514;-63
2022/05/12 16:28:02;;;;;;;11.52;2.28;;;19.20;82.80;;;;;;7347967;32;20131;-63
2022/05/12 16:32:05;;;;;;;5.68;1.62;;;19.20;82.60;;;;;;7363743;32;20707;-62
2022/05/12 16:36:08;;;;;;;6.20;1.80;;;19.10;82.50;;;;;;7360519;32;20220;-64
2022/05/12 16:40:10;;;;;;;4.57;2.00;;;19.00;83.90;;;;;;7349139;32;20107;-64
2022/05/12 16:44:14;;;;;;;4.70;1.90;;;19.10;82.30;;;;;;7346889;32;20167;-62
2022/05/12 16:48:16;;;;;;;4.18;1.62;;;19.20;84.00;;;;;;7354051;32;20103;-62
2022/05/12 16:52:20;;;;;;;4.93;2.45;;;19.20;82.20;;;;;;7354941;32;20133;-63
2022/05/12 16:56:22;;;;;;;5.62;1.85;;;19.20;83.60;;;;;;7340846;32;20121;-62
2022/05/12 17:00:23;;;;;;;7.30;2.25;;;19.10;84.50;;;;;;7357161;32;20197;-64
2022/05/12 17:04:26;;;;;;;5.10;2.45;;;19.10;84.80;;;;;;7360349;32;20125;-63
2022/05/12 17:08:29;;;;;;;5.43;2.35;;;18.90;85.50;;;;;;7351879;32;20237;-64
2022/05/12 17:12:32;;;;;;;3.50;1.90;;;18.90;86.70;;;;;;7344264;32;20490;-62
2022/05/12 17:16:35;;;;;;;6.03;1.70;;;18.90;86.10;;;;;;7353765;32;20107;-62
2022/05/12 17:20:37;;;;;;;5.05;1.45;;;18.90;84.50;;;;;;7354367;32;20825;-63
2022/05/12 17:24:39;;;;;;;5.47;1.62;;;18.80;85.90;;;;;;7354672;32;20166;-64
2022/05/12 17:28:41;;;;;;;5.18;1.85;;;18.70;86.10;;;;;;7360110;32;20135;-62
2022/05/12 17:32:43;;;;;;;4.82;1.83;;;18.70;85.80;;;;;;7340087;32;20532;-65
2022/05/12 17:36:44;;;;;;;3.87;1.40;;;18.60;84.90;;;;;;7357665;32;20118;-64
2022/05/12 17:40:52;;;;;;;3.47;1.70;;;18.50;87.50;;;;;;7366892;32;20102;-63
2022/05/12 17:44:53;;;;;;;;;;;18.50;85.80;;;;;;7360689;32;20104;-64
2022/05/12 17:48:55;;;;;;;3.85;1.67;;;18.50;86.10;;;;;;7345660;32;20098;-65
2022/05/12 17:52:59;;;;;;;6.72;1.92;;;18.40;88.50;;;;;;7366812;32;20182;-61
2022/05/12 17:57:01;;;;;;;7.30;1.75;;;18.50;86.30;;;;;;7334493;32;20137;-61
2022/05/12 18:01:03;;;;;;;6.37;1.65;;;18.50;87.10;;;;;;7357114;32;20137;-64
2022/05/12 18:05:07;;;;;;;5.18;2.00;;;18.50;88.90;;;;;;7335704;32;20107;-62
2022/05/12 18:09:10;;;;;;;3.30;1.73;;;18.60;86.20;;;;;;7348964;32;20125;-64
2022/05/12 18:13:12;;;;;;;7.35;1.73;;;18.60;88.20;;;;;;7362114;32;20125;-64
2022/05/12 18:17:14;;;;;;;5.43;1.65;;;18.50;90.40;;;;;;7353055;32;20121;-66
2022/05/12 18:21:15;;;;;;;4.57;1.67;;;18.40;89.90;;;;;;7355776;32;20213;-66
2022/05/12 18:25:17;;;;;;;7.22;1.85;;;18.40;88.80;;;;;;7354354;32;20673;-66
2022/05/12 18:29:19;;;;;;;3.10;1.58;;;18.30;89.60;;;;;;7346968;32;20251;-66
2022/05/12 18:33:21;;;;;;;6.82;1.60;;;18.10;90.20;;;;;;7340943;32;20239;-64
2022/05/12 18:37:24;;;;;;;4.87;1.80;;;18.00;92.20;;;;;;7355733;32;20201;-66
2022/05/12 18:41:28;;;;;;;4.37;1.73;;;18.00;89.70;;;;;;7351638;32;20754;-66
2022/05/12 18:45:53;;;;;;;4.95;1.50;;;17.70;92.00;;;;;;7368585;32;20216;-68
2022/05/12 18:49:55;;;;;;;9.20;2.30;;;17.70;92.40;;;;;;7353873;32;20268;-67
2022/05/12 18:53:57;;;;;;;8.90;1.87;;;17.50;92.10;;;;;;7344543;32;20126;-66
2022/05/12 18:57:59;;;;;;;5.10;1.83;;;17.30;93.00;;;;;;7355073;32;20112;-65
2022/05/12 19:02:01;;;;;;;3.45;1.30;;;17.30;93.00;;;;;;7354972;32;20140;-66
2022/05/12 19:06:03;;;;;;;5.22;1.30;;;17.20;94.00;;;;;;7341712;32;20233;-66
2022/05/12 19:10:06;;;;;;;3.20;1.65;;;16.90;95.80;;;;;;7358490;32;20140;-66
2022/05/12 19:14:08;;;;;;;5.57;1.60;;;16.70;99.70;;;;;;7353547;32;20549;-66
2022/05/12 19:18:12;;;;;;;6.93;2.10;;;16.40;99.90;;;;;;7359783;32;20614;-67
2022/05/12 19:22:15;;;;;;;4.87;1.85;;;16.10;99.90;;;;;;7357394;32;20707;-66
2022/05/12 19:26:16;;;;;;;7.50;2.80;;;15.80;99.90;;;;;;7351341;32;20850;-67
2022/05/12 19:30:22;;;;;;;5.78;4.03;;;15.50;99.90;;;;;;7359484;32;20286;-63
2022/05/12 19:34:24;;;;;;;6.97;2.42;;;15.20;99.90;;;;;;7358327;32;20672;-63
2022/05/12 19:38:25;;;;;;;6.50;2.20;;;15.00;99.90;;;;;;7355721;32;20129;-65
2022/05/12 19:42:27;;;;;;;8.02;2.40;;;14.80;99.90;;;;;;7339983;32;20225;-65
2022/05/12 19:46:29;;;;;;;5.55;2.20;;;14.40;99.90;;;;;;7353663;32;20134;-64
2022/05/12 19:50:32;;;;;;;8.35;2.53;;;14.20;99.90;;;;;;7348516;32;20742;-64
2022/05/12 19:54:34;;;;;;;13.13;3.10;;;14.00;99.90;;;;;;7357130;32;20145;-64
2022/05/12 19:58:36;;;;;;;5.47;2.65;;;13.70;99.90;;;;;;7361255;32;20491;-66
2022/05/12 20:02:37;;;;;;;9.73;3.00;;;13.60;99.90;;;;;;7348872;32;20099;-63
2022/05/12 20:06:39;;;;;;;8.32;2.83;;;13.40;99.90;;;;;;7356844;32;20125;-64
2022/05/12 20:10:41;;;;;;;5.87;3.03;;;13.20;99.90;;;;;;7364482;32;20129;-66
2022/05/12 20:14:42;;;;;;;8.93;3.35;;;13.00;99.90;;;;;;7353325;32;20199;-66
2022/05/12 20:18:45;;;;;;;8.98;3.37;;;12.80;99.90;;;;;;7335550;32;20128;-66
2022/05/12 20:22:48;;;;;;;8.32;3.03;;;12.60;99.90;;;;;;7354809;32;20160;-62
2022/05/12 20:26:50;;;;;;;6.87;3.03;;;12.60;99.90;;;;;;7359827;32;20287;-64
2022/05/12 20:30:53;;;;;;;5.15;2.95;;;12.50;99.90;;;;;;7359763;32;20111;-65
2022/05/12 20:34:55;;;;;;;7.28;3.45;;;12.50;99.90;;;;;;7357303;32;20141;-66
2022/05/12 20:38:56;;;;;;;9.10;3.37;;;12.30;99.90;;;;;;7360225;32;20103;-66
2022/05/12 20:42:58;;;;;;;6.68;3.40;;;12.20;99.90;;;;;;7362270;32;20616;-64
2022/05/12 20:47:00;;;;;;;6.68;2.92;;;12.00;99.90;;;;;;7359466;32;20210;-66
2022/05/12 20:51:03;;;;;;;12.43;3.90;;;12.00;99.90;;;;;;7349930;32;20139;-66
2022/05/12 20:55:05;;;;;;;7.97;4.32;;;11.90;99.90;;;;;;7349334;32;20921;-65
2022/05/12 20:59:08;;;;;;;13.25;3.80;;;11.90;99.90;;;;;;7341645;32;20718;-67
2022/05/12 21:03:10;;;;;;;7.85;3.05;;;11.70;99.90;;;;;;7338059;32;20126;-64
2022/05/12 21:07:12;;;;;;;8.10;3.05;;;11.70;99.90;;;;;;7353202;32;20132;-65
2022/05/12 21:11:15;;;;;;;5.50;3.08;;;11.60;99.90;;;;;;7351764;32;20121;-65
2022/05/12 21:15:17;;;;;;;3.97;3.10;;;11.50;99.90;;;;;;7366780;32;20099;-66
2022/05/12 21:19:19;;;;;;;8.82;3.45;;;11.40;99.90;;;;;;7338025;32;20120;-62
2022/05/12 21:23:21;;;;;;;5.30;3.28;;;11.30;99.90;;;;;;7352433;32;20107;-64
2022/05/12 21:27:22;;;;;;;10.00;3.10;;;11.20;99.90;;;;;;7348182;32;20122;-63
2022/05/12 21:31:24;;;;;;;6.75;3.50;;;11.10;99.90;;;;;;7358320;32;20287;-62
2022/05/12 21:35:28;;;;;;;8.80;3.90;;;11.20;99.90;;;;;;7350155;32;20130;-62
2022/05/12 21:39:30;;;;;;;6.28;3.62;;;11.10;99.90;;;;;;7357930;32;20567;-62
2022/05/12 21:43:32;;;;;;;6.78;3.75;;;11.10;99.90;;;;;;7356182;32;20186;-61